createdAt,value
2018-04-10T00:00:26.580Z,13.03
2018-04-10T00:02:55.388Z,12.87
2018-04-10T00:05:24.012Z,12.85
2018-04-10T00:07:52.535Z,12.84
2018-04-10T00:10:21.312Z,12.92
2018-04-10T00:12:49.941Z,12.94
2018-04-10T00:15:18.383Z,12.83
2018-04-10T00:17:46.765Z,12.72
2018-04-10T00:20:15.079Z,12.61
2018-04-10T00:22:43.831Z,12.41
2018-04-10T00:25:12.309Z,12.53
2018-04-10T00:27:40.784Z,12.36
2018-04-10T00:30:10.426Z,12.43
2018-04-10T00:32:39.305Z,12.50
2018-04-10T00:35:09.044Z,12.55
2018-04-10T00:37:37.550Z,12.45
2018-04-10T00:40:07.408Z,12.43
2018-04-10T00:42:36.083Z,12.39
2018-04-10T00:45:04.487Z,12.45
2018-04-10T00:47:32.853Z,12.41
2018-04-10T00:50:01.328Z,12.36
2018-04-10T00:52:31.035Z,12.53
2018-04-10T00:54:59.411Z,12.45
2018-04-10T00:57:27.788Z,12.39
2018-04-10T00:59:56.086Z,12.47
2018-04-10T01:22:31.622Z,12.01
2018-04-10T01:25:01.098Z,11.83
2018-04-10T01:27:30.557Z,11.83
2018-04-10T01:30:00.491Z,11.89
2018-04-10T01:32:30.138Z,11.95
2018-04-10T01:34:59.532Z,11.83
2018-04-10T01:37:29.022Z,11.79
2018-04-10T01:40:00.983Z,11.82
2018-04-10T01:42:30.428Z,11.78
2018-04-10T01:44:59.810Z,11.63
2018-04-10T01:47:29.496Z,11.76
2018-04-10T01:49:59.521Z,11.71
2018-04-10T01:52:29.151Z,11.67
2018-04-10T01:54:58.655Z,11.68
2018-04-10T01:57:28.332Z,11.63
2018-04-10T01:59:57.766Z,11.62
2018-04-10T02:02:27.202Z,11.59
2018-04-10T02:05:05.390Z,11.64
2018-04-10T02:07:35.772Z,11.65
2018-04-10T02:10:05.218Z,11.57
2018-04-10T02:12:35.208Z,11.54
2018-04-10T02:15:05.194Z,11.62
2018-04-10T02:17:34.620Z,11.61
2018-04-10T02:20:08.272Z,11.58
2018-04-10T02:22:37.659Z,11.52
2018-04-10T02:25:08.035Z,11.70
2018-04-10T02:27:42.904Z,11.68
2018-04-10T02:30:12.364Z,11.66
2018-04-10T02:32:41.763Z,11.55
2018-04-10T02:35:11.434Z,11.51
2018-04-10T02:37:41.180Z,11.59
2018-04-10T02:40:11.384Z,11.57
2018-04-10T02:42:40.874Z,11.61
2018-04-10T02:45:10.320Z,11.62
2018-04-10T02:47:41.097Z,11.57
2018-04-10T02:50:10.486Z,11.67
2018-04-10T02:52:39.845Z,11.65
2018-04-10T02:55:09.650Z,11.58
2018-04-10T02:57:38.974Z,11.65
2018-04-10T03:00:08.968Z,11.68
2018-04-10T03:02:39.699Z,11.68
2018-04-10T03:05:10.079Z,11.62
2018-04-10T03:07:39.482Z,11.67
2018-04-10T03:10:09.709Z,11.66
2018-04-10T03:12:39.063Z,11.60
2018-04-10T03:15:09.252Z,11.68
2018-04-10T03:17:39.947Z,11.83
2018-04-10T03:20:10.068Z,11.77
2018-04-10T03:22:39.457Z,11.78
2018-04-10T03:25:09.803Z,11.78
2018-04-10T03:27:39.392Z,11.89
2018-04-10T03:30:09.352Z,11.88
2018-04-10T03:32:44.052Z,11.83
2018-04-10T03:35:13.447Z,11.79
2018-04-10T03:37:42.799Z,11.78
2018-04-10T03:40:12.335Z,12.05
2018-04-10T03:42:44.205Z,11.85
2018-04-10T03:45:13.892Z,11.76
2018-04-10T03:47:43.271Z,11.68
2018-04-10T03:50:12.774Z,11.72
2018-04-10T03:52:42.649Z,11.68
2018-04-10T03:55:12.089Z,11.66
2018-04-10T03:57:41.452Z,11.53
2018-04-10T04:00:12.272Z,11.45
2018-04-10T04:02:41.571Z,11.52
2018-04-10T04:05:10.952Z,11.60
2018-04-10T04:07:43.492Z,11.56
2018-04-10T04:10:12.870Z,11.45
2018-04-10T04:12:42.302Z,11.35
2018-04-10T04:15:12.250Z,11.48
2018-04-10T04:17:41.823Z,11.43
2018-04-10T04:20:21.858Z,11.57
2018-04-10T04:22:51.459Z,11.60
2018-04-10T04:25:20.821Z,11.66
2018-04-10T04:27:50.253Z,11.75
2018-04-10T04:30:21.125Z,11.80
2018-04-10T04:32:50.817Z,11.87
2018-04-10T04:35:20.278Z,11.75
2018-04-10T04:37:49.717Z,11.65
2018-04-10T04:40:19.502Z,11.59
2018-04-10T04:42:48.914Z,11.51
2018-04-10T04:45:18.324Z,11.64
2018-04-10T04:47:47.730Z,11.61
2018-04-10T04:50:17.981Z,11.58
2018-04-10T04:52:47.412Z,11.55
2018-04-10T04:55:16.755Z,11.37
2018-04-10T04:57:48.649Z,11.40
2018-04-10T05:00:18.117Z,11.33
2018-04-10T05:02:47.553Z,11.46
2018-04-10T05:05:20.766Z,11.42
2018-04-10T05:07:50.238Z,11.22
2018-04-10T05:10:19.765Z,11.27
2018-04-10T05:12:50.474Z,11.28
2018-04-10T05:15:20.054Z,11.32
2018-04-10T05:17:49.623Z,11.30
2018-04-10T05:20:21.335Z,11.24
2018-04-10T05:22:50.687Z,11.11
2018-04-10T05:25:20.111Z,11.12
2018-04-10T05:27:49.753Z,11.17
2018-04-10T05:30:19.124Z,11.34
2018-04-10T05:32:48.577Z,11.32
2018-04-10T05:35:20.529Z,11.32
2018-04-10T05:37:50.477Z,11.38
2018-04-10T05:40:19.971Z,11.47
2018-04-10T05:42:49.995Z,11.51
2018-04-10T05:45:19.557Z,11.41
2018-04-10T05:47:48.922Z,11.45
2018-04-10T05:50:18.676Z,11.55
2018-04-10T05:52:48.182Z,11.70
2018-04-10T05:55:44.166Z,11.59
2018-04-10T05:58:14.130Z,11.71
2018-04-10T06:00:43.686Z,11.72
2018-04-10T06:03:13.374Z,11.74
2018-04-10T06:05:43.127Z,11.82
2018-04-10T06:08:12.569Z,11.86
2018-04-10T06:10:42.156Z,11.97
2018-04-10T06:13:11.604Z,12.02
2018-04-10T06:15:41.044Z,12.01
2018-04-10T06:18:15.246Z,12.02
2018-04-10T06:20:58.255Z,12.08
2018-04-10T06:23:27.723Z,12.27
2018-04-10T06:25:57.438Z,12.18
2018-04-10T06:28:26.821Z,12.39
2018-04-10T06:30:56.368Z,12.46
2018-04-10T06:33:25.748Z,12.46
2018-04-10T06:35:56.232Z,12.48
2018-04-10T06:38:25.650Z,12.50
2018-04-10T06:41:04.343Z,12.78
2018-04-10T06:43:42.398Z,12.96
2018-04-10T06:46:12.954Z,13.08
2018-04-10T06:48:42.949Z,13.22
2018-04-10T06:51:12.381Z,13.36
2018-04-10T06:53:42.160Z,13.57
2018-04-10T06:56:11.644Z,13.72
2018-04-10T06:58:41.340Z,13.75
2018-04-10T07:01:11.089Z,13.93
2018-04-10T07:03:40.584Z,14.00
2018-04-10T07:06:09.978Z,13.93
2018-04-10T07:08:40.734Z,14.14
2018-04-10T07:11:10.332Z,14.34
2018-04-10T07:13:40.909Z,14.53
2018-04-10T07:16:10.605Z,14.69
2018-04-10T07:18:40.095Z,14.72
2018-04-10T07:21:14.509Z,14.72
2018-04-10T07:23:43.984Z,14.88
2018-04-10T07:26:13.373Z,15.11
2018-04-10T07:28:42.812Z,15.19
2018-04-10T07:31:12.169Z,15.23
2018-04-10T07:33:41.998Z,15.58
2018-04-10T07:36:11.460Z,15.71
2018-04-10T07:38:41.080Z,15.49
2018-04-10T07:41:10.526Z,15.41
2018-04-10T07:43:39.996Z,15.50
2018-04-10T07:46:09.463Z,15.61
2018-04-10T07:48:38.809Z,15.75
2018-04-10T07:51:08.575Z,15.82
2018-04-10T07:53:37.929Z,15.85
2018-04-10T07:56:07.282Z,15.93
2018-04-10T07:58:36.795Z,16.73
2018-04-10T08:01:06.176Z,16.75
2018-04-10T08:03:35.636Z,16.95
2018-04-10T08:06:05.202Z,16.86
2018-04-10T08:08:35.277Z,17.09
2018-04-10T08:11:05.015Z,17.95
2018-04-10T08:13:34.458Z,18.33
2018-04-10T08:16:03.929Z,18.44
2018-04-10T08:18:33.648Z,18.31
2018-04-10T08:21:03.248Z,18.90
2018-04-10T08:23:32.780Z,19.37
2018-04-10T08:26:02.271Z,19.66
2018-04-10T08:28:31.720Z,20.46
2018-04-10T08:31:01.555Z,21.34
2018-04-10T08:33:31.370Z,20.95
2018-04-10T08:36:00.710Z,21.04
2018-04-10T08:38:30.052Z,21.08
2018-04-10T08:40:59.787Z,22.13
2018-04-10T08:43:29.255Z,21.78
2018-04-10T08:45:58.729Z,21.84
2018-04-10T08:48:28.768Z,21.33
2018-04-10T08:50:58.233Z,22.09
2018-04-10T08:53:27.642Z,22.24
2018-04-10T08:55:59.370Z,22.34
2018-04-10T08:58:28.938Z,20.66
2018-04-10T09:00:58.308Z,21.29
2018-04-10T09:03:28.097Z,21.88
2018-04-10T09:05:57.561Z,23.22
2018-04-10T09:08:27.040Z,21.28
2018-04-10T09:10:56.420Z,23.19
2018-04-10T09:13:25.885Z,22.75
2018-04-10T09:15:59.634Z,22.75
2018-04-10T09:18:29.144Z,23.61
2018-04-10T09:20:58.627Z,23.62
2018-04-10T09:23:28.030Z,22.20
2018-04-10T09:25:58.279Z,21.96
2018-04-10T09:28:29.113Z,22.21
2018-04-10T09:30:58.598Z,23.18
2018-04-10T09:33:28.133Z,23.86
2018-04-10T09:36:00.194Z,23.26
2018-04-10T09:38:29.582Z,23.25
2018-04-10T09:40:59.081Z,23.53
2018-04-10T09:43:29.792Z,23.54
2018-04-10T09:45:59.228Z,22.20
2018-04-10T09:48:29.840Z,22.07
2018-04-10T09:50:59.558Z,22.19
2018-04-10T09:53:29.000Z,23.03
2018-04-10T09:55:58.921Z,23.12
2018-04-10T09:58:28.614Z,22.73
2018-04-10T10:00:58.862Z,23.94
2018-04-10T10:03:28.322Z,22.54
2018-04-10T10:05:57.738Z,24.43
2018-04-10T10:08:27.515Z,22.95
2018-04-10T10:10:57.193Z,23.40
2018-04-10T10:13:26.593Z,24.39
2018-04-10T10:15:58.310Z,24.57
2018-04-10T10:18:27.836Z,24.39
2018-04-10T10:20:57.188Z,23.61
2018-04-10T10:23:26.920Z,22.76
2018-04-10T10:25:56.356Z,21.73
2018-04-10T10:28:26.245Z,20.89
2018-04-10T10:30:57.711Z,22.20
2018-04-10T10:33:27.066Z,22.12
2018-04-10T10:35:56.410Z,21.82
2018-04-10T10:38:28.240Z,21.64
2018-04-10T10:40:59.956Z,21.76
2018-04-10T10:43:29.317Z,21.93
2018-04-10T10:45:58.999Z,22.44
2018-04-10T10:48:28.376Z,22.44
2018-04-10T10:50:58.663Z,22.59
2018-04-10T10:53:29.439Z,22.73
2018-04-10T10:55:59.032Z,22.88
2018-04-10T10:58:28.436Z,23.06
2018-04-10T11:01:00.364Z,22.77
2018-04-10T11:03:29.863Z,21.59
2018-04-10T11:05:59.501Z,20.61
2018-04-10T11:08:29.198Z,20.79
2018-04-10T11:10:59.778Z,21.07
2018-04-10T11:13:29.309Z,21.52
2018-04-10T11:15:59.042Z,21.66
2018-04-10T11:18:28.522Z,21.27
2018-04-10T11:20:57.996Z,21.92
2018-04-10T11:23:27.686Z,22.09
2018-04-10T11:25:57.237Z,22.05
2018-04-10T11:28:26.660Z,22.06
2018-04-10T11:30:58.486Z,21.77
2018-04-10T11:33:27.820Z,21.90
2018-04-10T11:35:57.175Z,21.70
2018-04-10T11:38:26.852Z,21.83
2018-04-10T11:40:56.233Z,21.89
2018-04-10T11:43:25.788Z,21.92
2018-04-10T11:45:57.838Z,21.60
2018-04-10T11:48:27.584Z,22.01
2018-04-10T11:50:57.080Z,22.06
2018-04-10T11:53:27.787Z,22.04
2018-04-10T11:55:57.254Z,22.01
2018-04-10T11:58:26.675Z,22.32
2018-04-10T12:00:57.520Z,22.25
2018-04-10T12:03:26.981Z,21.82
2018-04-10T12:05:56.414Z,21.56
2018-04-10T12:08:27.348Z,21.79
2018-04-10T12:10:56.811Z,22.21
2018-04-10T12:13:26.485Z,22.28
2018-04-10T12:15:56.215Z,21.94
2018-04-10T12:18:25.588Z,22.33
2018-04-10T12:20:54.986Z,22.26
2018-04-10T12:23:24.792Z,22.42
2018-04-10T12:25:54.298Z,22.52
2018-04-10T12:28:23.712Z,22.78
2018-04-10T12:30:53.444Z,22.64
2018-04-10T12:33:22.954Z,22.11
2018-04-10T12:35:52.419Z,22.64
2018-04-10T12:38:22.193Z,23.05
2018-04-10T12:40:51.606Z,23.06
2018-04-10T12:43:21.084Z,23.20
2018-04-10T12:45:50.762Z,23.26
2018-04-10T12:48:20.310Z,23.30
2018-04-10T12:50:49.720Z,23.27
2018-04-10T12:53:20.467Z,22.84
2018-04-10T12:55:49.794Z,22.83
2018-04-10T12:58:19.199Z,23.13
2018-04-10T13:00:49.062Z,23.12
2018-04-10T13:03:18.470Z,22.35
2018-04-10T13:05:47.909Z,22.22
2018-04-10T13:08:18.740Z,22.79
2018-04-10T13:10:48.205Z,23.18
2018-04-10T13:13:17.768Z,23.47
2018-04-10T13:15:47.567Z,23.97
2018-04-10T13:18:16.964Z,23.43
2018-04-10T13:20:46.418Z,23.88
2018-04-10T13:23:16.341Z,23.39
2018-04-10T13:25:45.773Z,22.98
2018-04-10T13:28:15.178Z,22.94
2018-04-10T13:30:44.922Z,22.87
2018-04-10T13:33:14.795Z,24.50
2018-04-10T13:35:44.190Z,24.78
2018-04-10T13:38:16.104Z,25.27
2018-04-10T13:40:45.528Z,24.87
2018-04-10T13:43:15.069Z,24.71
2018-04-10T13:45:45.010Z,24.79
2018-04-10T13:48:14.398Z,24.90
2018-04-10T13:50:43.844Z,24.51
2018-04-10T13:53:13.589Z,24.69
2018-04-10T13:55:43.026Z,24.48
2018-04-10T13:58:12.434Z,23.85
2018-04-10T14:00:42.326Z,23.86
2018-04-10T14:03:11.770Z,24.61
2018-04-10T14:05:41.307Z,24.54
2018-04-10T14:08:13.174Z,24.06
2018-04-10T14:10:42.684Z,24.50
2018-04-10T14:13:12.233Z,25.28
2018-04-10T14:15:42.744Z,25.57
2018-04-10T14:18:14.000Z,24.70
2018-04-10T14:20:43.518Z,24.61
2018-04-10T14:23:15.153Z,23.67
2018-04-10T14:25:44.973Z,23.16
2018-04-10T14:28:15.171Z,23.89
2018-04-10T14:30:46.175Z,23.30
2018-04-10T14:33:16.589Z,23.42
2018-04-10T14:35:47.733Z,23.28
2018-04-10T14:38:21.797Z,22.93
2018-04-10T14:40:51.610Z,22.28
2018-04-10T14:43:21.247Z,21.97
2018-04-10T14:45:51.697Z,21.59
2018-04-10T14:48:21.072Z,20.81
2018-04-10T14:50:50.553Z,20.70
2018-04-10T14:53:20.822Z,20.61
2018-04-10T14:55:51.605Z,20.72
2018-04-10T14:58:21.986Z,20.57
2018-04-10T15:00:51.682Z,20.52
2018-04-10T15:03:21.492Z,20.46
2018-04-10T15:05:51.325Z,20.56
2018-04-10T15:08:21.145Z,20.41
2018-04-10T15:10:51.187Z,19.72
2018-04-10T15:13:21.313Z,19.23
2018-04-10T15:15:51.139Z,18.90
2018-04-10T15:18:20.705Z,18.11
2018-04-10T15:20:50.266Z,17.51
2018-04-10T15:23:20.497Z,17.55
2018-04-10T15:25:49.909Z,17.25
2018-04-10T15:28:19.460Z,16.97
2018-04-10T15:30:49.286Z,17.02
2018-04-10T15:33:18.749Z,16.56
2018-04-10T15:35:50.144Z,16.10
2018-04-10T15:38:19.967Z,15.89
2018-04-10T15:40:49.559Z,15.79
2018-04-10T15:43:19.012Z,15.75
2018-04-10T15:45:49.822Z,15.29
2018-04-10T15:48:19.513Z,14.88
2018-04-10T15:50:49.254Z,14.71
2018-04-10T15:53:18.754Z,14.40
2018-04-10T15:55:48.405Z,14.01
2018-04-10T15:58:17.853Z,13.86
2018-04-10T16:00:47.571Z,13.29
2018-04-10T16:03:17.157Z,12.92
2018-04-10T16:05:46.899Z,12.95
2018-04-10T16:08:18.361Z,12.89
2018-04-10T16:10:47.918Z,12.82
2018-04-10T16:13:17.374Z,12.84
2018-04-10T16:15:46.778Z,12.63
2018-04-10T16:18:16.408Z,12.31
2018-04-10T16:20:47.364Z,12.20
2018-04-10T16:23:16.788Z,12.00
2018-04-10T16:25:46.284Z,11.91
2018-04-10T16:28:17.993Z,11.88
2018-04-10T16:30:47.443Z,11.84
2018-04-10T16:33:16.921Z,11.75
2018-04-10T16:35:48.863Z,11.64
2018-04-10T16:38:18.200Z,11.59
2018-04-10T16:40:47.551Z,11.32
2018-04-10T16:43:17.211Z,11.07
2018-04-10T16:45:47.662Z,10.78
2018-04-10T16:48:17.091Z,10.80
2018-04-10T16:50:50.244Z,10.68
2018-04-10T16:53:19.627Z,10.67
2018-04-10T16:55:49.062Z,10.63
2018-04-10T16:58:19.025Z,10.60
2018-04-10T17:00:48.444Z,10.48
2018-04-10T17:03:18.533Z,10.54
2018-04-10T17:05:48.794Z,10.46
2018-04-10T17:08:18.262Z,10.28
2018-04-10T17:10:47.867Z,10.28
2018-04-10T17:13:17.822Z,10.32
2018-04-10T17:15:47.397Z,10.56
2018-04-10T17:18:19.411Z,10.58
2018-04-10T17:20:49.264Z,10.45
2018-04-10T17:23:18.979Z,10.38
2018-04-10T17:25:48.529Z,10.30
2018-04-10T17:28:18.373Z,10.27
2018-04-10T17:30:47.846Z,10.27
2018-04-10T17:33:17.304Z,10.24
2018-04-10T17:35:46.764Z,10.09
2018-04-10T17:38:16.237Z,10.01
2018-04-10T17:40:45.740Z,10.02
2018-04-10T17:43:15.732Z,9.96
2018-04-10T17:45:45.487Z,9.90
2018-04-10T17:48:14.862Z,9.75
2018-04-10T17:50:44.577Z,9.75
2018-04-10T17:53:15.438Z,9.64
2018-04-10T17:55:46.584Z,9.54
2018-04-10T17:58:16.555Z,9.59
2018-04-10T18:00:46.440Z,9.54
2018-04-10T18:03:16.020Z,9.45
2018-04-10T18:05:46.005Z,9.41
2018-04-10T18:08:15.616Z,9.37
2018-04-10T18:10:45.057Z,9.40
2018-04-10T18:13:16.185Z,9.41
2018-04-10T18:15:46.622Z,9.26
2018-04-10T18:18:16.351Z,9.26
2018-04-10T18:20:46.148Z,9.26
2018-04-10T18:23:15.714Z,9.21
2018-04-10T18:25:46.805Z,9.19
2018-04-10T18:28:17.656Z,9.24
2018-04-10T18:30:48.135Z,9.27
2018-04-10T18:33:17.699Z,9.30
2018-04-10T18:35:48.405Z,9.22
2018-04-10T18:38:18.040Z,9.17
2018-04-10T18:40:48.580Z,9.28
2018-04-10T18:43:18.656Z,9.21
2018-04-10T18:45:48.134Z,9.12
2018-04-10T18:48:17.821Z,9.08
2018-04-10T18:50:47.589Z,9.12
2018-04-10T18:53:17.404Z,9.11
2018-04-10T18:55:46.944Z,9.06
2018-04-10T18:58:17.157Z,9.02
2018-04-10T19:00:46.958Z,9.05
2018-04-10T19:03:16.351Z,8.91
2018-04-10T19:05:48.288Z,8.88
2018-04-10T19:08:22.382Z,8.99
2018-04-10T19:10:52.438Z,9.05
2018-04-10T19:13:23.342Z,8.93
2018-04-10T19:15:52.767Z,8.95
2018-04-10T19:18:22.252Z,8.79
2018-04-10T19:20:54.336Z,8.83
2018-04-10T19:23:24.085Z,8.78
2018-04-10T19:25:53.592Z,8.80
2018-04-10T19:28:24.575Z,8.68
2018-04-10T19:30:54.360Z,8.89
2018-04-10T19:33:24.014Z,8.78
2018-04-10T19:35:54.872Z,8.85
2018-04-10T19:38:24.403Z,8.76
2018-04-10T19:40:56.022Z,8.83
2018-04-10T19:43:26.038Z,8.86
2018-04-10T19:45:56.156Z,8.77
2018-04-10T19:48:25.859Z,8.67
2018-04-10T19:51:09.237Z,8.69
2018-04-10T19:53:39.372Z,8.72
2018-04-10T19:56:14.812Z,8.88
2018-04-10T19:58:45.620Z,8.89
2018-04-10T20:01:16.897Z,8.67
2018-04-10T20:03:47.690Z,8.66
2018-04-10T20:06:19.177Z,8.73
2018-04-10T20:08:49.975Z,8.52
2018-04-10T20:11:20.236Z,8.48
2018-04-10T20:13:50.867Z,8.68
2018-04-10T20:16:24.787Z,8.67
2018-04-10T20:18:56.991Z,8.73
2018-04-10T20:21:27.156Z,8.75
2018-04-10T20:24:01.052Z,8.82
2018-04-10T20:26:31.921Z,8.80
2018-04-10T20:29:02.180Z,8.87
2018-04-10T20:31:37.623Z,9.07
2018-04-10T20:34:09.329Z,8.94
2018-04-10T20:36:40.238Z,8.85
2018-04-10T20:39:16.145Z,8.82
2018-04-10T20:41:48.759Z,8.87
2018-04-10T20:44:22.262Z,8.88
2018-04-10T20:46:53.721Z,8.82
2018-04-10T20:49:28.885Z,8.87
2018-04-10T20:52:01.085Z,8.98
2018-04-10T20:54:33.289Z,9.02
2018-04-10T20:57:05.287Z,9.05
2018-04-10T20:59:34.870Z,9.10
2018-04-10T21:02:11.226Z,9.17
2018-04-10T21:04:43.050Z,9.17
2018-04-10T21:07:14.274Z,9.13
2018-04-10T21:09:44.204Z,9.16
2018-04-10T21:12:14.036Z,9.28
2018-04-10T21:14:51.377Z,9.22
2018-04-10T21:17:22.147Z,9.14
2018-04-10T21:19:51.826Z,9.23
2018-04-10T21:22:21.537Z,9.09
2018-04-10T21:24:55.956Z,9.17
2018-04-10T21:27:26.479Z,9.26
2018-04-10T21:29:56.449Z,9.15
2018-04-10T21:32:26.124Z,9.16
2018-04-10T21:34:55.784Z,9.13
2018-04-10T21:37:26.202Z,9.07
2018-04-10T21:39:55.802Z,9.17
2018-04-10T21:42:25.833Z,9.21
2018-04-10T21:44:56.269Z,9.39
2018-04-10T21:47:27.060Z,9.25
2018-04-10T21:50:06.160Z,9.19
2018-04-10T21:52:37.479Z,9.27
2018-04-10T21:55:09.399Z,9.32
2018-04-10T21:57:39.160Z,9.31
2018-04-10T22:00:10.255Z,9.19
2018-04-10T22:02:40.885Z,9.23
2018-04-10T22:05:11.497Z,9.19
2018-04-10T22:07:42.671Z,9.19
2018-04-10T22:10:18.597Z,9.17
2018-04-10T22:12:48.785Z,9.08
2018-04-10T22:15:18.889Z,9.05
2018-04-10T22:17:48.735Z,9.08
2018-04-10T22:20:18.666Z,9.02
2018-04-10T22:22:48.300Z,9.04
2018-04-10T22:25:19.352Z,9.10
2018-04-10T22:27:49.321Z,9.18
2018-04-10T22:30:19.334Z,9.15
2018-04-10T22:32:48.741Z,9.29
2018-04-10T22:35:18.542Z,9.14
2018-04-10T22:37:48.547Z,9.20
2018-04-10T22:40:18.290Z,9.12
2018-04-10T22:42:49.229Z,9.07
2018-04-10T22:45:19.240Z,9.19
2018-04-10T22:47:48.943Z,9.17
2018-04-10T22:50:18.620Z,9.14
2018-04-10T22:55:13.549Z,9.04
2018-04-10T22:57:42.921Z,9.02
2018-04-10T23:00:12.136Z,9.19
2018-04-10T23:02:44.005Z,9.08
2018-04-10T23:05:14.032Z,9.01
2018-04-10T23:07:43.341Z,8.90
2018-04-10T23:10:11.792Z,8.73
2018-04-10T23:12:40.997Z,8.76
2018-04-10T23:15:10.353Z,8.73
2018-04-10T23:17:39.173Z,8.58
2018-04-10T23:20:09.094Z,8.76
2018-04-10T23:22:38.702Z,8.55
2018-04-10T23:25:08.370Z,8.64
2018-04-10T23:27:37.225Z,8.69
2018-04-10T23:30:05.816Z,8.62
2018-04-10T23:32:35.072Z,8.49
2018-04-10T23:35:03.698Z,8.57
2018-04-10T23:37:32.694Z,8.36
2018-04-10T23:40:01.309Z,8.35
2018-04-10T23:42:29.793Z,8.43
2018-04-10T23:44:58.337Z,8.38
2018-04-10T23:47:26.944Z,8.32
2018-04-10T23:49:55.489Z,8.41
2018-04-10T23:52:30.629Z,8.21
2018-04-10T23:54:59.318Z,8.09
2018-04-10T23:57:27.749Z,8.07
2018-04-10T23:59:56.857Z,8.19
